Time;durP1;ratioP1;P1;durP2;ratioP2;P2;SDS_P1;SDS_P2;PMS_P1;PMS_P2;Temp;Humidity;BMP_temperature;BMP_pressure;BME280_temperature;BME280_humidity;BME280_pressure;Samples;Min_cycle;Max_cycle;Signal;HPM_P1;HPM_P2
2022/12/09 00:01:56;;;;;;;20.67;12.47;;;2.10;99.90;;;;;;5093397;28;20108;-73
2022/12/09 00:04:22;;;;;;;19.57;12.80;;;2.20;99.90;;;;;;5092552;28;20917;-73
2022/12/09 00:06:48;;;;;;;19.30;12.63;;;2.20;99.90;;;;;;5083825;27;20047;-72
2022/12/09 00:09:15;;;;;;;19.57;12.83;;;2.20;99.90;;;;;;5090547;28;20048;-72
2022/12/09 00:11:41;;;;;;;20.57;12.87;;;2.20;99.90;;;;;;5092245;28;20067;-72
2022/12/09 00:14:09;;;;;;;22.00;13.53;;;2.20;99.90;;;;;;5105557;27;20311;-73
2022/12/09 00:16:34;;;;;;;20.90;13.90;;;2.20;99.90;;;;;;5095262;27;20047;-72
2022/12/09 00:19:00;;;;;;;19.47;13.47;;;2.20;99.90;;;;;;5091868;28;20054;-72
2022/12/09 00:21:31;;;;;;;21.00;13.43;;;2.20;99.90;;;;;;5063522;28;20091;-72
2022/12/09 00:23:59;;;;;;;24.33;13.17;;;2.20;99.90;;;;;;5127648;27;20494;-73
2022/12/09 00:26:26;;;;;;;19.80;12.70;;;2.20;99.90;;;;;;5089316;28;20035;-73
2022/12/09 00:28:53;;;;;;;22.13;13.87;;;2.20;99.90;;;;;;5116993;27;20070;-72
2022/12/09 00:31:23;;;;;;;22.13;12.60;;;2.20;99.90;;;;;;5090506;28;20039;-72
2022/12/09 00:33:54;;;;;;;21.37;13.53;;;2.20;99.90;;;;;;5091364;28;20044;-72
2022/12/09 00:36:21;;;;;;;23.03;13.23;;;2.20;99.90;;;;;;5109303;27;20036;-72
2022/12/09 00:38:47;;;;;;;18.07;12.20;;;2.20;99.90;;;;;;5093445;28;20040;-73
2022/12/09 00:41:14;;;;;;;21.23;12.87;;;2.20;99.90;;;;;;5106728;28;20359;-73
2022/12/09 00:43:40;;;;;;;23.43;12.60;;;2.20;99.90;;;;;;5093978;28;20104;-72
2022/12/09 00:46:06;;;;;;;19.47;12.73;;;2.20;99.90;;;;;;5090738;28;20090;-73
2022/12/09 00:48:37;;;;;;;21.10;12.20;;;2.20;99.90;;;;;;5093545;28;20062;-73
2022/12/09 00:51:07;;;;;;;19.90;12.33;;;2.20;99.90;;;;;;5094710;28;20055;-72
2022/12/09 00:53:32;;;;;;;18.97;12.57;;;2.20;99.90;;;;;;5090898;28;20506;-72
2022/12/09 00:55:58;;;;;;;23.23;13.23;;;2.10;99.90;;;;;;5094048;28;20047;-73
2022/12/09 00:58:24;;;;;;;21.10;13.77;;;2.20;99.90;;;;;;5076996;28;20043;-72
2022/12/09 01:00:52;;;;;;;23.17;14.77;;;2.10;99.90;;;;;;5106115;28;20066;-73
2022/12/09 01:03:19;;;;;;;22.73;13.37;;;2.00;99.90;;;;;;5110860;28;20055;-73
2022/12/09 01:05:45;;;;;;;24.97;13.50;;;1.90;99.90;;;;;;5105445;28;20087;-72
2022/12/09 01:08:12;;;;;;;21.23;13.20;;;1.90;99.90;;;;;;5109623;28;20044;-74
2022/12/09 01:10:39;;;;;;;19.40;12.53;;;1.80;99.90;;;;;;5091597;28;20062;-73
2022/12/09 01:13:06;;;;;;;22.73;13.17;;;1.80;99.90;;;;;;5120696;27;20048;-72
2022/12/09 01:15:31;;;;;;;22.63;14.83;;;1.80;99.90;;;;;;5108836;28;20477;-73
2022/12/09 01:17:57;;;;;;;20.13;12.93;;;1.80;99.90;;;;;;5108612;28;20039;-73
2022/12/09 01:20:23;;;;;;;19.47;12.50;;;1.80;99.90;;;;;;5091925;28;20043;-72
2022/12/09 01:22:49;;;;;;;21.00;13.27;;;1.80;99.90;;;;;;5087594;28;20052;-73
2022/12/09 01:25:15;;;;;;;20.93;13.23;;;1.80;99.90;;;;;;5092360;28;20050;-73
2022/12/09 01:27:40;;;;;;;21.70;13.47;;;1.80;99.90;;;;;;5092311;28;20043;-72
2022/12/09 01:30:08;;;;;;;19.67;12.97;;;1.80;99.90;;;;;;5098161;28;20039;-73
2022/12/09 01:32:33;;;;;;;22.27;13.17;;;1.80;99.90;;;;;;5092727;28;20042;-73
2022/12/09 01:34:59;;;;;;;21.30;13.47;;;1.80;99.90;;;;;;5095715;28;20035;-72
2022/12/09 01:37:25;;;;;;;21.47;13.70;;;1.80;99.90;;;;;;5091841;28;20066;-72
2022/12/09 01:39:50;;;;;;;22.43;14.00;;;1.80;99.90;;;;;;5095308;28;20112;-72
2022/12/09 01:42:22;;;;;;;22.40;12.83;;;1.70;99.90;;;;;;5096326;28;20038;-72
2022/12/09 01:45:22;;;;;;;20.17;13.05;;;1.70;99.90;;;;;;5092412;28;20043;-72
2022/12/09 01:47:55;;;;;;;22.53;13.20;;;1.70;99.90;;;;;;5122004;27;20052;-72
2022/12/09 01:50:21;;;;;;;22.73;13.13;;;1.60;99.90;;;;;;5108818;28;20054;-72
2022/12/09 01:52:48;;;;;;;29.87;14.53;;;1.50;99.90;;;;;;5094177;28;20271;-73
2022/12/09 01:55:14;;;;;;;21.93;13.13;;;1.50;99.90;;;;;;5097866;28;20082;-72
2022/12/09 01:57:41;;;;;;;28.83;16.20;;;1.40;99.90;;;;;;5092290;28;20055;-73
2022/12/09 02:00:07;;;;;;;27.23;15.03;;;1.40;99.90;;;;;;5076413;28;20032;-73
2022/12/09 02:02:35;;;;;;;25.70;15.10;;;1.30;99.90;;;;;;5126363;27;20538;-72
2022/12/09 02:05:02;;;;;;;26.70;13.33;;;1.30;99.90;;;;;;5108766;28;20048;-73
2022/12/09 02:07:29;;;;;;;27.23;15.47;;;1.30;99.90;;;;;;5108542;28;20056;-73
2022/12/09 02:09:55;;;;;;;21.87;13.47;;;1.30;99.90;;;;;;5093694;28;20139;-73
2022/12/09 02:12:40;;;;;;;40.10;17.90;;;1.30;99.90;;;;;;5111763;28;20079;-72
2022/12/09 02:15:13;;;;;;;27.77;14.50;;;1.30;99.90;;;;;;5074184;27;1124581;-72
2022/12/09 02:18:00;;;;;;;21.73;13.50;;;1.30;99.90;;;;;;5107760;27;20107;-72
2022/12/09 02:20:38;;;;;;;25.83;14.70;;;1.20;99.90;;;;;;5093371;27;20040;-72
2022/12/09 02:23:34;;;;;;;30.03;15.93;;;1.20;99.90;;;;;;5108522;27;20078;-72
2022/12/09 02:26:27;;;;;;;24.20;14.07;;;1.20;99.90;;;;;;5095571;28;20043;-73
2022/12/09 02:29:08;;;;;;;25.87;14.57;;;1.10;99.90;;;;;;5092694;28;20048;-73
2022/12/09 02:31:58;;;;;;;26.40;14.33;;;1.10;99.90;;;;;;5111081;27;20051;-72
2022/12/09 02:34:29;;;;;;;22.03;13.63;;;1.10;99.90;;;;;;5111182;27;20055;-72
2022/12/09 02:37:38;;;;;;;23.17;14.40;;;1.10;99.90;;;;;;5093479;28;20136;-73
2022/12/09 02:40:17;;;;;;;26.80;15.43;;;1.10;99.90;;;;;;5096729;27;20114;-72
2022/12/09 02:42:45;;;;;;;26.47;14.90;;;1.00;99.90;;;;;;5123437;27;20051;-72
2022/12/09 02:45:13;;;;;;;23.03;14.13;;;1.00;99.90;;;;;;5110200;27;20047;-72
2022/12/09 02:47:45;;;;;;;23.87;14.80;;;1.00;99.90;;;;;;5093957;27;20371;-73
2022/12/09 02:50:12;;;;;;;;;;;1.10;99.90;;;;;;5114498;27;20073;-72
2022/12/09 02:52:38;;;;;;;28.23;15.60;;;1.00;99.90;;;;;;5107670;27;19924;-73
2022/12/09 02:55:07;;;;;;;26.37;15.47;;;1.00;99.90;;;;;;5096418;28;20040;-73
2022/12/09 02:57:35;;;;;;;19.43;13.07;;;1.00;99.90;;;;;;5111198;27;20074;-72
2022/12/09 03:00:04;;;;;;;28.33;15.53;;;1.00;99.90;;;;;;5093833;28;20046;-72
2022/12/09 03:02:42;;;;;;;25.20;13.83;;;1.10;99.90;;;;;;5098324;27;20042;-73
2022/12/09 03:05:26;;;;;;;24.47;14.30;;;1.10;99.90;;;;;;5109169;27;20047;-73
2022/12/09 03:08:21;;;;;;;33.97;17.67;;;1.10;99.90;;;;;;5113051;27;20384;-73
2022/12/09 03:11:01;;;;;;;24.37;13.73;;;1.10;99.90;;;;;;5092292;28;20052;-73
2022/12/09 03:13:43;;;;;;;24.13;14.73;;;1.20;99.90;;;;;;5093678;28;20126;-73
2022/12/09 03:16:38;;;;;;;25.13;13.95;;;1.20;99.90;;;;;;5092500;27;20487;-72
2022/12/09 03:19:13;;;;;;;24.97;14.67;;;1.20;99.90;;;;;;5090205;28;20048;-72
2022/12/09 03:21:44;;;;;;;24.80;15.00;;;1.20;99.90;;;;;;5115801;27;20102;-72
2022/12/09 03:24:14;;;;;;;29.48;15.50;;;1.20;99.90;;;;;;5097152;27;20050;-72
2022/12/09 03:26:42;;;;;;;23.07;13.93;;;1.20;99.90;;;;;;5102317;27;20051;-71
2022/12/09 03:29:16;;;;;;;25.83;14.30;;;1.30;99.90;;;;;;5114082;27;20055;-72
2022/12/09 03:31:42;;;;;;;21.83;14.10;;;1.30;99.90;;;;;;5091385;28;20052;-73
2022/12/09 03:34:14;;;;;;;31.60;16.63;;;1.30;99.90;;;;;;5093095;27;20074;-73
2022/12/09 03:36:44;;;;;;;29.40;16.27;;;1.30;99.90;;;;;;5093138;28;20079;-72
2022/12/09 03:39:13;;;;;;;24.97;14.97;;;1.20;99.90;;;;;;5093061;27;20039;-72
2022/12/09 03:41:44;;;;;;;23.47;14.63;;;1.20;99.90;;;;;;5104787;28;20064;-72
2022/12/09 03:44:20;;;;;;;30.77;15.43;;;1.30;99.90;;;;;;5077205;28;20039;-71
2022/12/09 03:46:46;;;;;;;29.37;16.97;;;1.20;99.90;;;;;;5096087;28;20051;-73
2022/12/09 03:49:12;;;;;;;37.80;19.63;;;1.20;99.90;;;;;;5108957;27;20110;-72
2022/12/09 03:51:50;;;;;;;28.77;16.17;;;1.20;99.90;;;;;;5082362;28;20051;-72
2022/12/09 03:54:21;;;;;;;22.83;14.43;;;1.20;99.90;;;;;;5097839;27;20065;-72
2022/12/09 03:56:50;;;;;;;28.60;15.77;;;1.20;99.90;;;;;;5111520;27;20058;-72
2022/12/09 03:59:17;;;;;;;23.10;14.33;;;1.20;99.90;;;;;;5113407;27;20425;-72
2022/12/09 04:01:44;;;;;;;25.27;15.17;;;1.20;99.90;;;;;;5075596;28;20068;-73
2022/12/09 04:04:11;;;;;;;25.03;15.27;;;1.20;99.90;;;;;;5108637;27;20039;-73
2022/12/09 04:06:37;;;;;;;28.33;16.23;;;1.10;99.90;;;;;;5124701;27;20044;-73
2022/12/09 04:09:04;;;;;;;24.70;14.17;;;1.10;99.90;;;;;;5089342;28;20104;-73
2022/12/09 04:11:31;;;;;;;26.03;15.60;;;1.10;99.90;;;;;;5112732;27;20054;-72
2022/12/09 04:13:56;;;;;;;27.07;15.57;;;1.10;99.90;;;;;;5104403;27;20056;-72
2022/12/09 04:16:22;;;;;;;25.77;14.97;;;1.10;99.90;;;;;;5094581;28;20044;-71
2022/12/09 04:18:48;;;;;;;25.00;14.90;;;1.10;99.90;;;;;;5096239;28;20047;-72
2022/12/09 04:21:13;;;;;;;25.93;15.73;;;1.10;99.90;;;;;;5108808;27;20103;-72
2022/12/09 04:23:40;;;;;;;27.17;14.77;;;1.00;99.90;;;;;;5055561;27;20550;-72
2022/12/09 04:26:06;;;;;;;25.27;14.90;;;1.00;99.90;;;;;;5074080;28;20086;-72
2022/12/09 04:28:31;;;;;;;27.80;15.47;;;0.90;99.90;;;;;;5110428;27;20028;-73
2022/12/09 04:30:58;;;;;;;30.20;16.07;;;0.90;99.90;;;;;;5106300;28;20059;-71
2022/12/09 04:33:25;;;;;;;26.67;15.57;;;0.80;99.90;;;;;;5105703;27;20032;-72
2022/12/09 04:35:50;;;;;;;24.77;14.90;;;0.70;99.90;;;;;;5107011;27;20103;-73
2022/12/09 04:38:16;;;;;;;34.17;20.00;;;0.70;99.90;;;;;;5093676;28;20075;-72
2022/12/09 04:40:42;;;;;;;24.80;14.73;;;0.70;99.90;;;;;;5091583;28;20070;-73
2022/12/09 04:43:08;;;;;;;34.33;19.17;;;0.70;99.90;;;;;;5090652;28;20095;-73
2022/12/09 04:45:33;;;;;;;49.43;21.87;;;0.60;99.90;;;;;;5063290;28;20138;-73
2022/12/09 04:47:59;;;;;;;37.37;19.70;;;0.60;99.90;;;;;;5080020;28;20042;-72
2022/12/09 04:50:25;;;;;;;34.70;19.57;;;0.50;99.90;;;;;;5078001;28;20044;-72
2022/12/09 04:52:51;;;;;;;37.33;18.60;;;0.50;99.90;;;;;;5107578;28;20039;-72
2022/12/09 04:55:17;;;;;;;29.27;17.43;;;0.50;99.90;;;;;;5110180;28;20143;-72
2022/12/09 04:57:43;;;;;;;32.17;16.93;;;0.50;99.90;;;;;;5080028;28;20044;-72
2022/12/09 05:00:09;;;;;;;24.60;15.27;;;0.50;99.90;;;;;;5113557;27;20080;-73
2022/12/09 05:02:35;;;;;;;33.93;17.07;;;0.40;99.90;;;;;;5111645;27;20040;-73
2022/12/09 05:05:01;;;;;;;28.63;15.93;;;0.40;99.90;;;;;;5095805;27;20054;-72
2022/12/09 05:07:28;;;;;;;24.73;15.57;;;0.40;99.90;;;;;;5095193;28;20036;-72
2022/12/09 05:09:54;;;;;;;26.53;14.50;;;0.40;99.90;;;;;;5097030;28;20042;-72
2022/12/09 05:12:19;;;;;;;24.30;14.60;;;0.40;99.90;;;;;;5117974;27;20126;-73
2022/12/09 05:14:45;;;;;;;28.03;15.87;;;0.40;99.90;;;;;;5097980;27;20052;-73
2022/12/09 05:17:11;;;;;;;21.60;13.90;;;0.30;99.90;;;;;;5093643;28;20040;-72
2022/12/09 05:19:36;;;;;;;26.23;15.47;;;0.30;99.90;;;;;;5091172;27;20039;-72
2022/12/09 05:22:02;;;;;;;27.57;15.30;;;0.30;99.90;;;;;;5093748;28;20044;-72
2022/12/09 05:24:28;;;;;;;26.70;15.33;;;0.30;99.90;;;;;;5115111;27;20043;-72
2022/12/09 05:26:53;;;;;;;25.47;15.50;;;0.30;99.90;;;;;;5094241;28;20037;-73
2022/12/09 05:29:19;;;;;;;25.47;14.17;;;0.20;99.90;;;;;;5099232;27;20073;-72
2022/12/09 05:31:46;;;;;;;28.27;15.20;;;0.20;99.90;;;;;;5091298;28;20044;-73
2022/12/09 05:34:12;;;;;;;30.83;16.60;;;0.20;99.90;;;;;;5096141;28;20040;-72
2022/12/09 05:36:37;;;;;;;50.50;22.20;;;0.10;99.90;;;;;;5080107;28;20054;-72
2022/12/09 05:39:03;;;;;;;91.50;31.80;;;0.10;99.90;;;;;;5102533;28;20355;-72
2022/12/09 05:41:29;;;;;;;86.93;35.17;;;0.10;99.90;;;;;;5097000;28;20040;-72
2022/12/09 05:43:55;;;;;;;71.87;29.90;;;0.10;99.90;;;;;;5065276;28;20120;-71
2022/12/09 05:46:21;;;;;;;63.53;26.07;;;0.10;99.90;;;;;;5118051;27;20077;-72
2022/12/09 05:48:47;;;;;;;51.83;24.20;;;0.10;99.90;;;;;;5111400;27;20149;-72
2022/12/09 05:51:24;;;;;;;57.60;24.50;;;0.10;99.90;;;;;;5107806;27;20044;-72
2022/12/09 05:53:51;;;;;;;47.23;21.97;;;0.10;99.90;;;;;;5115179;27;20123;-72
2022/12/09 05:56:18;;;;;;;37.27;19.50;;;0.10;99.90;;;;;;5109034;27;20099;-72
2022/12/09 05:58:44;;;;;;;38.23;19.33;;;0.10;99.90;;;;;;5119170;27;20034;-72
2022/12/09 06:01:11;;;;;;;47.33;27.67;;;0.10;99.90;;;;;;5091086;28;20056;-72
2022/12/09 06:03:37;;;;;;;33.57;16.77;;;0.10;99.90;;;;;;5113586;27;20074;-72
2022/12/09 06:06:08;;;;;;;32.97;17.27;;;0.10;99.90;;;;;;5115536;27;20074;-72
2022/12/09 06:08:34;;;;;;;39.00;18.87;;;0.10;99.90;;;;;;5112313;27;20069;-72
2022/12/09 06:11:00;;;;;;;36.27;18.40;;;0.10;99.90;;;;;;5081902;28;20043;-73
2022/12/09 06:13:26;;;;;;;30.17;18.30;;;0.10;99.90;;;;;;5108775;27;20027;-72
2022/12/09 06:15:52;;;;;;;35.57;18.70;;;0.00;99.90;;;;;;5094376;27;20040;-71
2022/12/09 06:18:18;;;;;;;36.87;18.00;;;0.00;99.90;;;;;;5107838;27;20047;-72
2022/12/09 06:20:43;;;;;;;29.73;17.30;;;0.10;99.90;;;;;;5091799;28;20054;-73
2022/12/09 06:23:09;;;;;;;29.80;16.43;;;0.00;99.90;;;;;;5110870;27;20027;-72
2022/12/09 06:25:35;;;;;;;31.60;17.13;;;0.00;99.90;;;;;;5094135;28;20140;-72
2022/12/09 06:28:01;;;;;;;30.90;16.50;;;-0.10;99.90;;;;;;5082588;28;20067;-72
2022/12/09 06:30:27;;;;;;;32.27;17.87;;;-0.10;99.90;;;;;;5113484;27;20092;-73
2022/12/09 06:32:52;;;;;;;31.97;16.57;;;-0.10;99.90;;;;;;5111052;27;20048;-72
2022/12/09 06:35:18;;;;;;;30.40;16.93;;;-0.10;99.90;;;;;;5081287;28;20488;-73
2022/12/09 06:37:44;;;;;;;30.07;17.47;;;-0.10;99.90;;;;;;5068386;28;20043;-72
2022/12/09 06:40:10;;;;;;;27.27;15.33;;;-0.10;99.90;;;;;;5088960;27;20384;-72
2022/12/09 06:42:36;;;;;;;29.30;16.03;;;-0.10;99.90;;;;;;5111181;27;20541;-73
2022/12/09 06:45:02;;;;;;;27.07;15.90;;;-0.20;99.90;;;;;;5113640;27;20099;-76
2022/12/09 06:47:27;;;;;;;26.57;15.90;;;-0.20;99.90;;;;;;5096577;27;20057;-73
2022/12/09 06:49:56;;;;;;;33.13;18.33;;;-0.30;99.90;;;;;;5062321;28;20106;-72
2022/12/09 06:52:22;;;;;;;34.27;18.87;;;-0.30;99.90;;;;;;5107216;27;20036;-72
2022/12/09 06:54:48;;;;;;;28.37;16.17;;;-0.30;99.90;;;;;;5060699;28;20544;-72
2022/12/09 06:57:13;;;;;;;32.10;18.23;;;-0.30;99.90;;;;;;5104115;27;20166;-72
2022/12/09 06:59:39;;;;;;;28.47;16.17;;;-0.30;99.90;;;;;;5080969;27;20086;-72
2022/12/09 07:02:06;;;;;;;33.33;17.77;;;-0.30;99.90;;;;;;5091214;28;20048;-72
2022/12/09 07:04:31;;;;;;;30.80;18.50;;;-0.40;99.90;;;;;;5091315;28;20071;-72
2022/12/09 07:06:57;;;;;;;33.50;19.27;;;-0.40;99.90;;;;;;5111535;27;20042;-72
2022/12/09 07:09:23;;;;;;;31.87;18.13;;;-0.30;99.90;;;;;;5088622;27;20640;-72
2022/12/09 07:11:49;;;;;;;35.10;19.37;;;-0.40;99.90;;;;;;5086242;28;20055;-72
2022/12/09 07:14:16;;;;;;;35.30;19.70;;;-0.40;99.90;;;;;;5113751;27;20111;-72
2022/12/09 07:16:43;;;;;;;32.37;17.60;;;-0.40;99.90;;;;;;5090734;28;20050;-72
2022/12/09 07:19:19;;;;;;;27.97;17.13;;;-0.40;99.90;;;;;;5094168;27;20044;-72
2022/12/09 07:21:45;;;;;;;34.50;18.67;;;-0.40;99.90;;;;;;5103266;27;20051;-72
2022/12/09 07:24:13;;;;;;;35.73;18.67;;;-0.50;99.90;;;;;;5127467;27;20081;-72
2022/12/09 07:26:39;;;;;;;31.67;18.43;;;-0.50;99.90;;;;;;5087426;28;20075;-72
2022/12/09 07:29:06;;;;;;;31.23;18.20;;;-0.50;99.90;;;;;;5092099;28;20051;-72
2022/12/09 07:31:33;;;;;;;44.93;22.60;;;-0.50;99.90;;;;;;5108680;27;20096;-72
2022/12/09 07:33:59;;;;;;;47.00;23.40;;;-0.50;99.90;;;;;;5102309;27;20071;-73
2022/12/09 07:36:27;;;;;;;40.00;21.70;;;-0.50;99.90;;;;;;5078662;27;20381;-71
2022/12/09 07:38:54;;;;;;;34.50;19.77;;;-0.60;99.90;;;;;;5095781;27;20406;-69
2022/12/09 07:41:20;;;;;;;32.23;18.60;;;-0.60;99.90;;;;;;5124298;27;20035;-70
2022/12/09 07:43:47;;;;;;;37.40;20.90;;;-0.60;99.90;;;;;;5093372;28;20043;-69
2022/12/09 07:46:14;;;;;;;36.70;20.80;;;-0.50;99.90;;;;;;5123262;27;20052;-69
2022/12/09 07:48:40;;;;;;;39.37;20.77;;;-0.60;99.90;;;;;;5089093;28;20048;-68
2022/12/09 07:51:06;;;;;;;39.23;20.37;;;-0.60;99.90;;;;;;5116624;27;20184;-69
2022/12/09 07:53:34;;;;;;;33.70;18.10;;;-0.60;99.90;;;;;;5091568;28;20047;-69
2022/12/09 07:56:05;;;;;;;35.17;19.43;;;-0.50;99.90;;;;;;5111837;27;20469;-70
2022/12/09 07:58:31;;;;;;;43.07;22.50;;;-0.60;99.90;;;;;;5124055;27;20047;-69
2022/12/09 08:00:57;;;;;;;34.80;19.93;;;-0.50;99.90;;;;;;5134821;27;20106;-69
2022/12/09 08:03:22;;;;;;;42.47;22.23;;;-0.50;99.90;;;;;;5117329;27;20071;-69
2022/12/09 08:05:49;;;;;;;40.93;23.63;;;-0.50;99.90;;;;;;5118635;27;20043;-69
2022/12/09 08:08:15;;;;;;;40.83;21.70;;;-0.40;99.90;;;;;;5136655;27;20058;-69
2022/12/09 08:10:41;;;;;;;33.93;19.47;;;-0.40;99.90;;;;;;5118180;27;20047;-69
2022/12/09 08:13:07;;;;;;;35.20;20.13;;;-0.40;99.90;;;;;;5104844;27;20077;-70
2022/12/09 08:15:33;;;;;;;36.03;19.53;;;-0.40;99.90;;;;;;5110948;27;20079;-68
2022/12/09 08:17:59;;;;;;;35.63;20.00;;;-0.50;99.90;;;;;;5100621;27;20040;-69
2022/12/09 08:20:25;;;;;;;31.97;20.17;;;-0.40;99.90;;;;;;5112245;27;20465;-69
2022/12/09 08:22:50;;;;;;;39.07;21.23;;;-0.40;99.90;;;;;;5110993;27;20039;-68
2022/12/09 08:25:16;;;;;;;39.83;21.07;;;-0.30;99.90;;;;;;5123694;27;20038;-68
2022/12/09 08:27:42;;;;;;;36.13;21.07;;;-0.20;99.90;;;;;;5088743;28;20051;-68
2022/12/09 08:30:08;;;;;;;40.57;21.10;;;-0.20;99.90;;;;;;5115497;27;20487;-69
2022/12/09 08:32:33;;;;;;;35.10;21.17;;;-0.10;99.90;;;;;;5100487;27;20457;-69
2022/12/09 08:34:59;;;;;;;42.37;22.97;;;0.00;99.90;;;;;;5116461;27;20039;-69
2022/12/09 08:37:25;;;;;;;38.83;21.33;;;0.00;99.90;;;;;;5101989;28;20046;-69
2022/12/09 08:39:51;;;;;;;37.67;20.80;;;0.00;99.90;;;;;;5112341;28;20069;-69
2022/12/09 08:42:16;;;;;;;43.20;21.77;;;0.10;99.90;;;;;;5090920;28;20040;-69
2022/12/09 08:44:42;;;;;;;40.03;22.90;;;0.20;99.90;;;;;;5079885;28;20047;-70
2022/12/09 08:47:08;;;;;;;40.60;22.60;;;0.20;99.90;;;;;;5108089;28;20044;-70
2022/12/09 08:49:34;;;;;;;39.03;22.47;;;0.20;99.90;;;;;;5108636;28;20109;-70
2022/12/09 08:51:59;;;;;;;41.20;23.20;;;0.30;99.90;;;;;;5089932;28;20529;-70
2022/12/09 08:54:25;;;;;;;42.50;22.67;;;0.40;99.90;;;;;;5113815;28;20059;-69
2022/12/09 08:56:56;;;;;;;38.43;21.30;;;0.40;99.90;;;;;;5128455;28;20039;-70
2022/12/09 08:59:22;;;;;;;37.67;21.77;;;0.50;99.90;;;;;;5137110;28;20070;-70
2022/12/09 09:01:48;;;;;;;39.90;21.30;;;0.50;99.90;;;;;;5131091;27;20095;-69
2022/12/09 09:04:16;;;;;;;38.20;21.40;;;0.60;99.90;;;;;;5136380;27;20506;-71
2022/12/09 09:06:44;;;;;;;41.70;23.17;;;0.60;99.90;;;;;;5135895;28;20364;-70
2022/12/09 09:09:12;;;;;;;43.40;22.93;;;0.70;99.90;;;;;;5132220;27;20075;-70
2022/12/09 09:11:39;;;;;;;43.40;23.63;;;0.70;99.90;;;;;;5113145;28;20257;-70
2022/12/09 09:14:07;;;;;;;43.40;24.47;;;0.80;99.90;;;;;;5126696;28;20051;-70
2022/12/09 09:16:33;;;;;;;44.07;22.83;;;0.80;99.90;;;;;;5109896;28;20048;-70
2022/12/09 09:19:00;;;;;;;42.83;24.23;;;0.90;99.90;;;;;;5133133;28;20052;-70
2022/12/09 09:21:26;;;;;;;43.23;23.63;;;0.90;99.90;;;;;;5100320;28;20047;-70
2022/12/09 09:23:52;;;;;;;43.93;23.57;;;1.00;99.90;;;;;;5131718;28;20096;-70
2022/12/09 09:26:21;;;;;;;46.97;25.53;;;1.00;99.90;;;;;;5108284;28;20138;-70
2022/12/09 09:28:47;;;;;;;45.73;25.07;;;1.00;99.90;;;;;;5119147;28;20039;-70
2022/12/09 09:31:16;;;;;;;47.97;25.20;;;1.10;99.90;;;;;;5134449;28;20072;-70
2022/12/09 09:33:42;;;;;;;47.30;25.40;;;1.10;99.90;;;;;;5112234;28;20075;-70
2022/12/09 09:36:14;;;;;;;44.60;23.83;;;1.10;99.90;;;;;;5122050;28;20112;-70
2022/12/09 09:38:40;;;;;;;49.33;26.13;;;1.20;99.90;;;;;;5129547;28;20619;-70
2022/12/09 09:41:27;;;;;;;49.83;26.43;;;1.20;99.90;;;;;;5137120;27;20043;-69
2022/12/09 09:43:55;;;;;;;57.33;28.83;;;1.20;99.90;;;;;;5113785;28;20051;-70
2022/12/09 09:46:34;;;;;;;56.33;29.73;;;1.20;99.90;;;;;;5137905;27;20120;-69
2022/12/09 09:49:02;;;;;;;62.13;31.37;;;1.30;99.90;;;;;;5140341;27;20534;-70
2022/12/09 09:51:32;;;;;;;64.87;32.43;;;1.30;99.90;;;;;;5121591;27;20049;-70
2022/12/09 09:53:57;;;;;;;58.03;29.40;;;1.30;99.90;;;;;;5115682;28;20047;-70
2022/12/09 09:56:27;;;;;;;76.90;34.73;;;1.30;99.90;;;;;;5095432;28;20047;-71
2022/12/09 09:59:19;;;;;;;82.80;36.33;;;1.40;99.90;;;;;;5137440;27;20047;-70
2022/12/09 10:02:11;;;;;;;102.28;40.22;;;1.30;99.90;;;;;;5120342;27;20472;-70
2022/12/09 10:05:05;;;;;;;120.53;39.80;;;1.40;99.90;;;;;;5106914;27;20046;-70
2022/12/09 10:07:42;;;;;;;141.83;47.60;;;1.40;99.90;;;;;;5139734;27;20464;-70
2022/12/09 10:10:32;;;;;;;231.63;59.03;;;1.40;99.90;;;;;;5137109;27;20046;-70
2022/12/09 10:13:08;;;;;;;95.77;38.30;;;1.40;99.90;;;;;;5130600;27;20055;-69
2022/12/09 10:15:44;;;;;;;108.37;40.47;;;1.40;99.90;;;;;;5113040;27;20513;-70
2022/12/09 10:18:15;;;;;;;134.80;41.63;;;1.50;99.90;;;;;;5137518;27;20051;-70
2022/12/09 10:20:42;;;;;;;123.88;39.28;;;1.50;99.90;;;;;;5139939;27;20549;-69
2022/12/09 10:23:17;;;;;;;145.53;42.53;;;1.50;99.90;;;;;;5133147;27;20043;-70
2022/12/09 10:25:52;;;;;;;126.60;39.47;;;1.40;99.90;;;;;;5121070;27;20035;-70
2022/12/09 10:28:33;;;;;;;124.80;36.43;;;1.40;99.90;;;;;;5138995;27;20126;-69
2022/12/09 10:30:59;;;;;;;126.93;38.73;;;1.50;99.90;;;;;;5100770;27;20556;-70
2022/12/09 10:33:29;;;;;;;178.70;49.97;;;1.40;99.90;;;;;;5094558;27;20043;-70
2022/12/09 10:35:55;;;;;;;148.53;47.53;;;1.50;99.90;;;;;;5138509;27;20562;-70
2022/12/09 10:38:23;;;;;;;81.53;36.77;;;1.50;99.90;;;;;;5137949;27;20058;-70
2022/12/09 10:41:05;;;;;;;106.80;42.23;;;1.50;99.90;;;;;;5139383;27;20051;-70
2022/12/09 10:43:43;;;;;;;100.32;39.88;;;1.50;99.90;;;;;;5116232;27;20062;-70
2022/12/09 10:46:10;;;;;;;106.47;43.63;;;1.50;99.90;;;;;;5136274;27;20076;-70
2022/12/09 10:48:46;;;;;;;80.23;35.23;;;1.50;99.90;;;;;;5133042;27;20039;-70
2022/12/09 10:51:42;;;;;;;85.77;37.87;;;1.50;99.90;;;;;;5137779;27;20301;-70
2022/12/09 10:54:08;;;;;;;77.50;35.87;;;1.50;99.90;;;;;;5098029;27;20146;-70
2022/12/09 10:56:36;;;;;;;82.63;38.07;;;1.50;99.90;;;;;;5113220;27;20082;-70
2022/12/09 10:59:22;;;;;;;126.90;40.23;;;1.50;99.90;;;;;;5139983;27;20054;-70
2022/12/09 11:01:57;;;;;;;135.93;42.30;;;1.50;99.90;;;;;;5137067;27;20043;-70
2022/12/09 11:04:35;;;;;;;127.63;41.33;;;1.50;99.90;;;;;;5134114;27;20072;-70
2022/12/09 11:07:02;;;;;;;94.67;36.03;;;1.50;99.90;;;;;;5134879;27;20051;-69
2022/12/09 11:09:34;;;;;;;167.57;47.20;;;1.50;99.90;;;;;;5130423;27;20045;-70
2022/12/09 11:12:01;;;;;;;193.38;44.58;;;1.50;99.90;;;;;;5108777;27;20125;-70
2022/12/09 11:14:34;;;;;;;195.47;47.50;;;1.50;99.90;;;;;;5136658;27;20070;-70
2022/12/09 11:17:21;;;;;;;143.00;45.33;;;1.50;99.90;;;;;;5137141;27;20063;-70
2022/12/09 11:19:51;;;;;;;191.57;50.57;;;1.40;99.90;;;;;;5136414;27;20122;-70
2022/12/09 11:22:37;;;;;;;70.73;33.40;;;1.40;99.90;;;;;;5135950;27;20039;-70
2022/12/09 11:25:25;;;;;;;89.33;38.60;;;1.40;99.90;;;;;;5120644;27;20078;-71
2022/12/09 11:28:14;;;;;;;108.60;39.63;;;1.40;99.90;;;;;;5138696;27;20043;-70
2022/12/09 11:30:53;;;;;;;85.60;36.07;;;1.40;99.90;;;;;;5092148;27;20480;-70
2022/12/09 11:33:25;;;;;;;73.20;33.07;;;1.40;99.90;;;;;;5124123;27;20050;-70
2022/12/09 11:36:21;;;;;;;77.00;34.67;;;1.30;99.90;;;;;;5130225;27;20040;-70
2022/12/09 11:38:50;;;;;;;121.83;42.83;;;1.30;99.90;;;;;;5134789;27;20043;-69
2022/12/09 11:44:27;;;;;;;76.50;34.25;;;1.30;99.90;;;;;;5136297;27;20043;-70
2022/12/09 11:47:04;;;;;;;72.90;36.33;;;1.30;99.90;;;;;;5127538;27;20058;-70
2022/12/09 11:49:34;;;;;;;86.50;39.13;;;1.30;99.90;;;;;;5133272;27;20157;-70
2022/12/09 11:52:21;;;;;;;82.30;36.90;;;1.30;99.90;;;;;;5121840;27;20043;-70
2022/12/09 11:55:08;;;;;;;90.33;38.77;;;1.30;99.90;;;;;;5108831;27;20067;-70
2022/12/09 11:57:46;;;;;;;78.97;37.03;;;1.30;99.90;;;;;;5129782;27;20047;-70
2022/12/09 12:00:23;;;;;;;73.33;35.57;;;1.30;99.90;;;;;;5105201;27;20178;-70
2022/12/09 12:03:31;;;;;;;72.33;33.53;;;1.40;99.90;;;;;;5133462;27;20047;-70
2022/12/09 12:06:01;;;;;;;71.37;34.20;;;1.40;99.90;;;;;;5054082;27;20051;-70
2022/12/09 12:08:53;;;;;;;64.80;32.30;;;1.50;99.90;;;;;;5123273;27;20051;-70
2022/12/09 12:11:25;;;;;;;69.63;34.85;;;1.50;99.90;;;;;;5119475;27;20521;-71
2022/12/09 12:14:11;;;;;;;75.10;36.73;;;1.50;99.90;;;;;;5117867;27;20058;-70
2022/12/09 12:16:48;;;;;;;70.10;31.23;;;1.60;99.90;;;;;;5107462;27;20115;-70
2022/12/09 12:19:33;;;;;;;71.60;34.33;;;1.60;99.90;;;;;;5107442;28;20074;-70
2022/12/09 12:22:24;;;;;;;66.10;31.47;;;1.70;99.90;;;;;;5109427;27;20043;-70
2022/12/09 12:25:08;;;;;;;72.03;32.80;;;1.70;99.90;;;;;;5105954;27;20107;-70
2022/12/09 12:27:39;;;;;;;73.00;34.87;;;1.70;99.90;;;;;;5137124;27;20078;-70
2022/12/09 12:30:10;;;;;;;68.55;33.92;;;1.80;99.90;;;;;;5137042;27;20049;-70
2022/12/09 12:32:56;;;;;;;66.93;33.17;;;1.80;99.90;;;;;;5137700;27;20031;-70
2022/12/09 12:35:56;;;;;;;70.60;33.20;;;1.80;99.90;;;;;;5129758;27;20050;-70
2022/12/09 12:38:42;;;;;;;61.57;31.20;;;1.90;99.90;;;;;;5135685;27;20100;-70
2022/12/09 12:41:26;;;;;;;67.30;32.43;;;1.90;99.90;;;;;;5067666;27;20068;-70
2022/12/09 12:47:32;;;;;;;66.73;32.23;;;2.00;99.90;;;;;;5111036;28;20389;-70
2022/12/09 12:49:57;;;;;;;61.03;29.77;;;2.00;99.90;;;;;;5119070;28;20043;-70
2022/12/09 12:52:42;;;;;;;62.97;30.60;;;2.00;99.90;;;;;;5117545;28;20088;-70
2022/12/09 12:55:17;;;;;;;64.00;32.13;;;2.10;99.90;;;;;;5109041;28;20052;-70
2022/12/09 12:58:08;;;;;;;61.80;31.23;;;2.10;99.90;;;;;;5116573;28;20419;-70
2022/12/09 13:00:41;;;;;;;63.17;31.60;;;2.00;99.90;;;;;;5104516;28;20051;-70